Photometre #45[NE_1.6] Lille AOT

File : 20220925_45.hum

25/09/2022,06:34:21,TEMP=12.6,BA=5.64,STAT.A=8.5,ExtBa=12.85
25/09/2022,06:38:26,TEMP=13.7,BA=5.64,STAT.A=8.0,ExtBa=12.76
25/09/2022,06:43:14,TEMP=13.9,BA=5.60,STAT.A=8.0,ExtBa=12.71
25/09/2022,06:48:57,TEMP=13.9,BA=5.60,STAT.A=8.5,ExtBa=12.69
25/09/2022,06:55:52,TEMP=13.9,BA=5.52,STAT.A=8.5,ExtBa=12.69
25/09/2022,07:04:25,TEMP=14.6,BA=5.64,STAT.A=8.5,ExtBa=12.68
25/09/2022,07:15:17,TEMP=15.3,BA=5.64,STAT.B=8.5,ExtBa=12.71
25/09/2022,07:25:03,TEMP=20.8,BA=5.48,STAT.A=6.5,ExtBa=12.37
25/09/2022,07:27:00,TEMP=21.0,BA=5.48,STAT.A=6.5,ExtBa=12.39
25/09/2022,07:33:01,TEMP=17.8,BA=5.64,STAT.A=8.5,ExtBa=12.58
25/09/2022,07:40:38,TEMP=17.8,BA=5.64,STAT.A=8.5,ExtBa=12.63
25/09/2022,07:49:26,TEMP=18.3,BA=5.64,STAT.C=8.5,ExtBa=12.66
25/09/2022,08:03:20,TEMP=24.0,BA=5.48,STAT.A=6.5,ExtBa=12.32
25/09/2022,08:12:08,TEMP=19.5,BA=5.64,STAT.A=8.5,ExtBa=12.61
25/09/2022,08:27:15,TEMP=19.5,BA=5.64,STAT.A=8.5,ExtBa=12.71
25/09/2022,08:39:49,TEMP=20.0,BA=5.64,STAT.F,ExtBa=12.71
25/09/2022,08:54:47,TEMP=24.4,BA=5.48,STAT.D=7.0,ExtBa=12.42
25/09/2022,09:09:47,TEMP=21.4,BA=5.64,STAT.D=8.5,ExtBa=12.68
25/09/2022,09:24:47,TEMP=21.6,BA=5.64,STAT.D=8.5,ExtBa=12.72
25/09/2022,09:39:49,TEMP=20.3,BA=5.64,STAT.F,ExtBa=12.74
25/09/2022,09:54:47,TEMP=19.7,BA=5.60,STAT.D=8.5,ExtBa=12.77
25/09/2022,10:09:48,TEMP=20.7,BA=5.64,STAT.D=8.5,ExtBa=12.78
25/09/2022,10:24:47,TEMP=20.0,BA=5.64,STAT.D=8.5,ExtBa=12.79
25/09/2022,10:39:49,TEMP=20.8,BA=5.64,STAT.F,ExtBa=12.77
25/09/2022,10:54:48,TEMP=19.5,BA=5.64,STAT.D=8.5,ExtBa=12.80
25/09/2022,11:09:48,TEMP=19.8,BA=5.60,STAT.D=8.5,ExtBa=12.81
25/09/2022,11:24:48,TEMP=20.9,BA=5.64,STAT.D=8.5,ExtBa=12.79
25/09/2022,11:39:27,TEMP=23.5,BA=5.64,STAT.h
25/09/2022,11:54:27,TEMP=23.5,BA=5.64,STAT.h
25/09/2022,12:09:47,TEMP=16.8,BA=5.60,STAT.D=8.5,ExtBa=12.88
25/09/2022,12:24:47,TEMP=17.3,BA=5.64,STAT.D=8.5,ExtBa=12.86
25/09/2022,12:39:27,TEMP=19.4,BA=5.64,STAT.h
25/09/2022,12:54:48,TEMP=14.8,BA=5.64,STAT.D=8.5,ExtBa=12.89
25/09/2022,13:09:47,TEMP=15.4,BA=5.64,STAT.D=8.5,ExtBa=12.87
25/09/2022,13:24:47,TEMP=16.4,BA=5.64,STAT.D=8.5,ExtBa=12.86
25/09/2022,13:39:48,TEMP=17.3,BA=5.64,STAT.F,ExtBa=12.82
25/09/2022,13:54:47,TEMP=17.9,BA=5.64,STAT.D=8.5,ExtBa=12.84
25/09/2022,14:09:46,TEMP=17.5,BA=5.64,STAT.D=8.5,ExtBa=12.85
25/09/2022,14:24:46,TEMP=17.2,BA=5.64,STAT.D=8.5,ExtBa=12.85
25/09/2022,14:39:49,TEMP=17.7,BA=5.64,STAT.F,ExtBa=12.82
25/09/2022,14:52:23,TEMP=17.7,BA=5.64,STAT.A=8.5,ExtBa=12.83
25/09/2022,15:07:29,TEMP=17.3,BA=5.64,STAT.A=8.5,ExtBa=12.84
25/09/2022,15:19:50,TEMP=17.3,BA=5.64,STAT.A=8.5,ExtBa=12.80
25/09/2022,15:30:10,TEMP=17.3,BA=5.56,STAT.C=8.5,ExtBa=12.81
25/09/2022,15:38:58,TEMP=17.1,BA=5.56,STAT.A=8.5,ExtBa=12.80
25/09/2022,15:46:35,TEMP=16.9,BA=5.48,STAT.A=8.5,ExtBa=12.78
25/09/2022,15:53:14,TEMP=16.7,BA=5.64,STAT.A=8.5,ExtBa=12.76
25/09/2022,15:59:06,TEMP=16.7,BA=5.64,STAT.A=8.5,ExtBa=12.75
25/09/2022,16:04:19,TEMP=16.7,BA=5.48,STAT.B=8.5,ExtBa=12.72
25/09/2022,16:15:11,TEMP=15.9,BA=5.64,STAT.A=8.5,ExtBa=12.78
25/09/2022,16:23:44,TEMP=16.0,BA=5.64,STAT.A=8.5,ExtBa=12.78
25/09/2022,16:30:39,TEMP=16.1,BA=5.64,STAT.A=8.5,ExtBa=12.76
25/09/2022,16:36:22,TEMP=16.3,BA=5.64,STAT.A=8.5,ExtBa=12.73
25/09/2022,16:41:10,TEMP=16.5,BA=5.64,STAT.A=8.5,ExtBa=12.70
25/09/2022,16:46:09,TEMP=16.4,BA=5.64,STAT.A=8.5,ExtBa=12.69